createdAt,value
2019-06-26T00:00:36.476Z,29.00
2019-06-26T00:03:06.777Z,29.00
2019-06-26T00:05:37.213Z,29.00
2019-06-26T00:08:07.878Z,29.00
2019-06-26T00:10:38.670Z,29.00
2019-06-26T00:13:24.865Z,29.00
2019-06-26T00:15:41.586Z,29.00
2019-06-26T00:18:11.725Z,29.00
2019-06-26T00:20:42.347Z,29.00
2019-06-26T00:23:12.568Z,29.10
2019-06-26T00:25:42.891Z,29.10
2019-06-26T00:28:13.847Z,29.10
2019-06-26T00:30:44.893Z,29.10
2019-06-26T00:33:15.585Z,29.20
2019-06-26T00:35:46.361Z,29.20
2019-06-26T00:38:17.097Z,29.20
2019-06-26T00:40:47.792Z,29.30
2019-06-26T00:43:17.759Z,29.30
2019-06-26T00:45:48.603Z,29.30
2019-06-26T00:48:19.615Z,29.40
2019-06-26T00:50:50.581Z,29.40
2019-06-26T00:53:21.583Z,29.40
2019-06-26T00:55:55.047Z,29.40
2019-06-26T00:58:23.649Z,29.50
2019-06-26T01:00:53.953Z,29.50
2019-06-26T01:03:24.670Z,29.50
2019-06-26T01:05:55.093Z,29.60
2019-06-26T01:08:25.887Z,29.60
2019-06-26T01:10:56.651Z,29.70
2019-06-26T01:13:27.386Z,29.70
2019-06-26T01:15:58.050Z,29.70
2019-06-26T01:18:28.396Z,29.80
2019-06-26T01:20:58.673Z,29.80
2019-06-26T01:23:29.267Z,29.90
2019-06-26T01:25:59.918Z,29.90
2019-06-26T01:28:31.952Z,29.90
2019-06-26T01:31:02.826Z,29.90
2019-06-26T01:33:33.334Z,29.90
2019-06-26T01:36:04.056Z,30.00
2019-06-26T01:38:34.392Z,30.00
2019-06-26T01:41:04.707Z,30.00
2019-06-26T01:43:35.630Z,30.10
2019-06-26T01:46:05.852Z,30.20
2019-06-26T01:48:36.396Z,30.20
2019-06-26T01:51:07.370Z,30.20
2019-06-26T01:53:37.817Z,30.30
2019-06-26T01:56:08.076Z,30.30
2019-06-26T01:58:38.418Z,30.30
2019-06-26T02:01:09.195Z,30.30
2019-06-26T02:03:39.846Z,30.40
2019-06-26T02:06:10.682Z,30.50
2019-06-26T02:08:41.487Z,30.50
2019-06-26T02:11:12.384Z,30.50
2019-06-26T02:13:43.192Z,30.60
2019-06-26T02:16:13.610Z,30.60
2019-06-26T02:18:45.041Z,30.70
2019-06-26T02:21:15.305Z,30.80
2019-06-26T02:23:45.770Z,30.90
2019-06-26T02:26:17.863Z,31.00
2019-06-26T02:28:47.977Z,31.10
2019-06-26T02:31:18.613Z,31.10
2019-06-26T02:33:49.046Z,31.20
2019-06-26T02:36:19.711Z,31.20
2019-06-26T02:38:50.006Z,31.30
2019-06-26T02:41:19.787Z,31.30
2019-06-26T02:43:50.440Z,31.30
2019-06-26T02:46:20.466Z,31.30
2019-06-26T02:48:50.990Z,31.30
2019-06-26T02:51:23.922Z,31.40
2019-06-26T02:53:54.426Z,31.40
2019-06-26T02:56:25.307Z,31.40
2019-06-26T02:58:56.266Z,31.40
2019-06-26T03:01:27.139Z,31.50
2019-06-26T03:03:57.840Z,31.50
2019-06-26T03:06:29.421Z,31.50
2019-06-26T03:09:00.066Z,31.50
2019-06-26T03:11:30.569Z,31.60
2019-06-26T03:14:00.807Z,31.70
2019-06-26T03:16:31.396Z,31.70
2019-06-26T03:19:01.547Z,31.80
2019-06-26T03:21:32.324Z,31.80
2019-06-26T03:24:05.955Z,31.80
2019-06-26T03:26:36.911Z,31.90
2019-06-26T03:29:07.830Z,32.00
2019-06-26T03:31:40.192Z,32.10
2019-06-26T03:34:11.086Z,32.10
2019-06-26T03:36:41.420Z,32.30
2019-06-26T03:39:12.267Z,32.40
2019-06-26T03:41:43.136Z,32.50
2019-06-26T03:44:13.227Z,32.50
2019-06-26T03:46:43.948Z,32.60
2019-06-26T03:49:14.025Z,32.60
2019-06-26T03:51:47.122Z,32.70
2019-06-26T03:54:17.554Z,32.70
2019-06-26T03:56:48.339Z,32.80
2019-06-26T03:59:19.129Z,32.80
2019-06-26T04:01:49.367Z,33.00
2019-06-26T04:04:19.611Z,33.00
2019-06-26T04:06:50.427Z,33.00
2019-06-26T04:09:20.729Z,33.20
2019-06-26T04:11:51.642Z,33.30
2019-06-26T04:14:22.543Z,33.30
2019-06-26T04:16:53.168Z,33.40
2019-06-26T04:19:24.101Z,33.50
2019-06-26T04:21:54.731Z,33.60
2019-06-26T04:24:24.658Z,33.60
2019-06-26T04:26:55.538Z,33.70
2019-06-26T04:29:25.755Z,33.70
2019-06-26T04:31:56.163Z,33.70
2019-06-26T04:34:26.866Z,33.80
2019-06-26T04:36:56.782Z,33.90
2019-06-26T04:39:28.083Z,33.90
2019-06-26T04:41:58.672Z,34.00
2019-06-26T04:44:29.450Z,34.00
2019-06-26T04:46:59.779Z,34.10
2019-06-26T04:49:29.916Z,34.10
2019-06-26T04:52:00.043Z,34.00
2019-06-26T04:54:30.770Z,34.00
2019-06-26T04:57:01.059Z,34.00
2019-06-26T04:59:31.825Z,34.00
2019-06-26T05:02:01.710Z,34.00
2019-06-26T05:04:32.547Z,34.20
2019-06-26T05:07:03.416Z,34.20
2019-06-26T05:09:34.247Z,34.30
2019-06-26T05:12:04.077Z,34.30
2019-06-26T05:14:34.869Z,34.30
2019-06-26T05:17:05.271Z,34.40
2019-06-26T05:19:36.028Z,34.50
2019-06-26T05:22:06.816Z,34.50
2019-06-26T05:24:37.463Z,34.40
2019-06-26T05:27:08.249Z,34.40
2019-06-26T05:29:38.911Z,34.30
2019-06-26T05:32:09.570Z,34.20
2019-06-26T05:34:39.998Z,34.10
2019-06-26T05:37:10.838Z,34.00
2019-06-26T05:39:41.435Z,33.90
2019-06-26T05:42:12.161Z,33.90
2019-06-26T05:44:42.218Z,33.90
2019-06-26T05:47:12.137Z,33.80
2019-06-26T05:49:42.848Z,33.90
2019-06-26T05:52:16.471Z,33.80
2019-06-26T05:54:44.684Z,33.90
2019-06-26T05:57:15.759Z,33.80
2019-06-26T05:59:46.669Z,33.90
2019-06-26T06:02:17.195Z,34.00
2019-06-26T06:04:47.480Z,34.00
2019-06-26T06:07:19.042Z,34.10
2019-06-26T06:09:50.378Z,34.20
2019-06-26T06:12:21.172Z,34.40
2019-06-26T06:14:51.881Z,34.50
2019-06-26T06:17:24.561Z,34.50
2019-06-26T06:19:55.436Z,34.50
2019-06-26T06:22:27.565Z,34.60
2019-06-26T06:24:57.931Z,34.50
2019-06-26T06:27:28.810Z,34.60
2019-06-26T06:29:58.960Z,34.60
2019-06-26T06:32:29.694Z,34.60
2019-06-26T06:35:00.633Z,34.70
2019-06-26T06:37:30.721Z,34.70
2019-06-26T06:40:00.937Z,34.80
2019-06-26T06:42:31.486Z,34.80
2019-06-26T06:45:03.102Z,34.80
2019-06-26T06:47:33.553Z,34.80
2019-06-26T06:50:04.287Z,34.80
2019-06-26T06:52:34.726Z,34.90
2019-06-26T06:55:05.451Z,34.90
2019-06-26T06:57:35.628Z,34.90
2019-06-26T07:00:06.957Z,34.90
2019-06-26T07:02:37.682Z,34.90
2019-06-26T07:05:08.040Z,35.00
2019-06-26T07:07:38.725Z,35.00
2019-06-26T07:10:09.083Z,35.10
2019-06-26T07:12:39.276Z,35.20
2019-06-26T07:15:09.722Z,35.30
2019-06-26T07:17:41.440Z,35.30
2019-06-26T07:20:11.964Z,35.30
2019-06-26T07:22:42.077Z,35.40
2019-06-26T07:25:12.038Z,35.40
2019-06-26T07:27:42.638Z,35.50
2019-06-26T07:30:13.518Z,35.50
2019-06-26T07:32:44.309Z,35.50
2019-06-26T07:35:14.242Z,35.60
2019-06-26T07:37:45.125Z,35.50
2019-06-26T07:40:15.774Z,35.50
2019-06-26T07:42:45.951Z,35.60
2019-06-26T07:45:16.070Z,35.60
2019-06-26T07:47:46.616Z,35.50
2019-06-26T07:50:17.500Z,35.60
2019-06-26T07:52:48.126Z,35.50
2019-06-26T07:55:18.472Z,35.60
2019-06-26T07:57:49.300Z,35.60
2019-06-26T08:00:19.982Z,35.60
2019-06-26T08:02:50.662Z,35.60
2019-06-26T08:05:21.569Z,35.70
2019-06-26T08:07:52.473Z,35.70
2019-06-26T08:10:22.976Z,35.70
2019-06-26T08:12:53.119Z,35.70
2019-06-26T08:15:23.635Z,35.80
2019-06-26T08:18:00.420Z,35.80
2019-06-26T08:20:25.642Z,35.80
2019-06-26T08:22:55.574Z,35.80
2019-06-26T08:25:26.251Z,35.70
2019-06-26T08:27:56.813Z,35.70
2019-06-26T08:30:27.463Z,35.80
2019-06-26T08:32:58.332Z,35.80
2019-06-26T08:35:29.152Z,35.80
2019-06-26T08:38:09.981Z,35.80
2019-06-26T08:40:31.044Z,35.80
2019-06-26T08:43:01.675Z,35.80
2019-06-26T08:45:32.623Z,35.70
2019-06-26T08:48:16.836Z,35.70
2019-06-26T08:50:35.247Z,35.70
2019-06-26T08:53:05.452Z,35.80
2019-06-26T08:55:35.568Z,35.90
2019-06-26T08:58:06.905Z,35.90
2019-06-26T09:00:37.651Z,35.90
2019-06-26T09:03:08.097Z,35.90
2019-06-26T09:05:47.900Z,35.90
2019-06-26T09:08:10.126Z,35.80
2019-06-26T09:10:44.559Z,35.80
2019-06-26T09:13:12.972Z,35.70
2019-06-26T09:15:43.210Z,35.70
2019-06-26T09:18:13.135Z,35.70
2019-06-26T09:20:43.399Z,35.70
2019-06-26T09:23:13.285Z,35.70
2019-06-26T09:25:44.045Z,35.80
2019-06-26T09:28:14.626Z,35.70
2019-06-26T09:30:45.346Z,35.70
2019-06-26T09:33:15.826Z,35.80
2019-06-26T09:35:46.320Z,35.80
2019-06-26T09:38:16.948Z,35.80
2019-06-26T09:40:47.376Z,35.80
2019-06-26T09:43:17.493Z,35.80
2019-06-26T09:45:48.394Z,35.70
2019-06-26T09:48:18.991Z,35.70
2019-06-26T09:50:49.298Z,35.70
2019-06-26T09:53:19.780Z,35.70
2019-06-26T09:55:50.242Z,35.70
2019-06-26T09:58:20.322Z,35.70
2019-06-26T10:00:50.750Z,35.70
2019-06-26T10:03:21.386Z,35.60
2019-06-26T10:05:52.568Z,35.50
2019-06-26T10:08:23.487Z,35.50
2019-06-26T10:10:54.401Z,35.50
2019-06-26T10:13:25.299Z,35.50
2019-06-26T10:15:55.399Z,35.60
2019-06-26T10:18:26.191Z,35.60
2019-06-26T10:20:56.695Z,35.60
2019-06-26T10:23:26.980Z,35.60
2019-06-26T10:25:57.681Z,35.60
2019-06-26T10:28:28.552Z,35.60
2019-06-26T10:30:59.285Z,35.60
2019-06-26T10:33:30.058Z,35.60
2019-06-26T10:36:00.263Z,35.60
2019-06-26T10:38:30.686Z,35.60
2019-06-26T10:41:01.419Z,35.60
2019-06-26T10:43:31.732Z,35.50
2019-06-26T10:46:02.406Z,35.50
2019-06-26T10:48:33.087Z,35.50
2019-06-26T10:51:05.522Z,35.40
2019-06-26T10:53:36.925Z,35.40
2019-06-26T10:56:08.060Z,35.30
2019-06-26T10:58:38.975Z,35.30
2019-06-26T11:01:09.671Z,35.30
2019-06-26T11:03:39.725Z,35.30
2019-06-26T11:06:10.493Z,35.20
2019-06-26T11:08:41.499Z,35.20
2019-06-26T11:11:11.626Z,35.10
2019-06-26T11:13:42.207Z,35.10
2019-06-26T11:16:13.217Z,35.10
2019-06-26T11:18:43.827Z,35.10
2019-06-26T11:21:14.313Z,35.00
2019-06-26T11:23:44.687Z,35.00
2019-06-26T11:26:14.995Z,34.90
2019-06-26T11:28:46.285Z,34.90
2019-06-26T11:31:16.295Z,34.80
2019-06-26T11:33:47.075Z,34.70
2019-06-26T11:36:17.861Z,34.70
2019-06-26T11:38:48.242Z,34.60
2019-06-26T11:41:19.027Z,34.60
2019-06-26T11:43:49.913Z,34.50
2019-06-26T11:46:20.080Z,34.50
2019-06-26T11:48:51.500Z,34.40
2019-06-26T11:51:21.926Z,34.40
2019-06-26T11:53:52.767Z,34.40
2019-06-26T11:56:23.573Z,34.40
2019-06-26T11:58:54.515Z,34.30
2019-06-26T12:01:25.197Z,34.30
2019-06-26T12:03:55.375Z,34.20
2019-06-26T12:06:26.224Z,34.20
2019-06-26T12:08:56.390Z,34.10
2019-06-26T12:11:26.760Z,34.10
2019-06-26T12:13:58.497Z,34.10
2019-06-26T12:16:29.087Z,34.00
2019-06-26T12:18:59.873Z,34.00
2019-06-26T12:21:30.735Z,34.00
2019-06-26T12:24:00.995Z,33.90
2019-06-26T12:26:31.291Z,33.90
2019-06-26T12:29:01.732Z,33.80
2019-06-26T12:31:31.824Z,33.80
2019-06-26T12:34:02.467Z,33.70
2019-06-26T12:36:33.523Z,33.70
2019-06-26T12:39:04.453Z,33.70
2019-06-26T12:41:35.393Z,33.60
2019-06-26T12:44:06.322Z,33.60
2019-06-26T12:46:37.446Z,33.60
2019-06-26T12:49:07.664Z,33.60
2019-06-26T12:51:37.773Z,33.50
2019-06-26T12:54:07.701Z,33.50
2019-06-26T12:56:37.999Z,33.50
2019-06-26T12:59:08.100Z,33.50
2019-06-26T13:01:38.712Z,33.40
2019-06-26T13:04:08.841Z,33.40
2019-06-26T13:06:39.581Z,33.40
2019-06-26T13:09:10.596Z,33.40
2019-06-26T13:11:41.797Z,33.40
2019-06-26T13:14:11.846Z,33.30
2019-06-26T13:16:42.216Z,33.30
2019-06-26T13:19:12.251Z,33.30
2019-06-26T13:21:43.177Z,33.30
2019-06-26T13:24:14.114Z,33.30
2019-06-26T13:26:44.916Z,33.30
2019-06-26T13:29:15.647Z,33.30
2019-06-26T13:31:46.980Z,33.30
2019-06-26T13:34:17.679Z,33.30
2019-06-26T13:36:48.218Z,33.30
2019-06-26T13:39:18.878Z,33.30
2019-06-26T13:41:51.160Z,33.30
2019-06-26T13:44:23.175Z,33.20
2019-06-26T13:46:54.103Z,33.20
2019-06-26T13:49:27.774Z,33.20
2019-06-26T13:51:58.340Z,33.10
2019-06-26T13:54:29.210Z,33.10
2019-06-26T13:57:00.063Z,33.10
2019-06-26T13:59:31.199Z,33.10
2019-06-26T14:02:02.122Z,33.10
2019-06-26T14:04:32.879Z,33.00
2019-06-26T14:07:03.452Z,33.10
2019-06-26T14:09:34.352Z,33.00
2019-06-26T14:12:04.882Z,33.00
2019-06-26T14:14:52.542Z,32.90
2019-06-26T14:17:07.234Z,32.90
2019-06-26T14:19:38.253Z,32.90
2019-06-26T14:22:08.594Z,32.90
2019-06-26T14:24:39.411Z,32.90
2019-06-26T14:27:10.200Z,32.80
2019-06-26T14:29:41.064Z,32.80
2019-06-26T14:32:11.371Z,32.80
2019-06-26T14:34:42.217Z,32.80
2019-06-26T14:37:12.793Z,32.80
2019-06-26T14:39:43.574Z,32.80
2019-06-26T14:42:14.335Z,32.70
2019-06-26T14:44:44.530Z,32.70
2019-06-26T14:47:15.169Z,32.70
2019-06-26T14:49:45.595Z,32.70
2019-06-26T14:52:15.919Z,32.70
2019-06-26T14:54:46.376Z,32.70
2019-06-26T14:57:17.243Z,32.70
2019-06-26T14:59:48.026Z,32.60
2019-06-26T15:02:18.556Z,32.60
2019-06-26T15:04:48.651Z,32.60
2019-06-26T15:07:18.655Z,32.60
2019-06-26T15:09:49.323Z,32.60
2019-06-26T15:12:20.219Z,32.60
2019-06-26T15:14:50.749Z,32.60
2019-06-26T15:17:20.792Z,32.60
2019-06-26T15:19:51.846Z,32.50
2019-06-26T15:22:22.520Z,32.50
2019-06-26T15:24:53.327Z,32.50
2019-06-26T15:27:23.523Z,32.40
2019-06-26T15:29:54.154Z,32.40
2019-06-26T15:32:24.574Z,32.40
2019-06-26T15:34:54.927Z,32.40
2019-06-26T15:37:26.028Z,32.40
2019-06-26T15:39:55.958Z,32.40
2019-06-26T15:42:26.312Z,32.40
2019-06-26T15:44:56.401Z,32.30
